Pennville, Missouri
Current Conditions -  °F | °C
As of 5:55 PM on Sunday 28 Dec 2014 (Local Time) from KIRK Reporting Station
Clear Clear  
Wind Chill: 29°   Ceiling: Unl
Heat Index: 29°   Visibility: 10mi
Dew Point: 19°   Wind: 0mph
Humidity: 67%   Direction: NA
Pressure: 30.17"   Gusts: NA
Location:  40.2455°N, 92.9523°W
Report Text: KIRK 282355Z AUTO 00000KT 10SM CLR M02/M07 A3017 RMK AO2 SLP233 T10171072 10033 21017 53007
Loading
Personal Weather Stations






























Interactive Weather Map New forecast layout! Learn more

10-Day Weather Forecast

Advertisements
Track Severe Weather on mobile